Time;durP1;ratioP1;P1;durP2;ratioP2;P2;SDS_P1;SDS_P2;PMS_P1;PMS_P2;Temp;Humidity;BMP_temperature;BMP_pressure;BME280_temperature;BME280_humidity;BME280_pressure;Samples;Min_cycle;Max_cycle;Signal;HPM_P1;HPM_P2
2022/07/03 00:02:23;;;;;;;1.50;1.40;;;;;;;17.61;64.92;95855.53;5015569;28;20587;-77
2022/07/03 00:04:49;;;;;;;1.80;1.58;;;;;;;17.54;64.99;95852.81;5013060;28;20179;-78
2022/07/03 00:07:14;;;;;;;1.45;1.35;;;;;;;17.60;64.59;95853.91;4995743;28;20195;-77
2022/07/03 00:09:39;;;;;;;2.78;1.42;;;;;;;17.57;64.43;95851.63;5011941;28;20183;-77
2022/07/03 00:12:05;;;;;;;1.40;1.30;;;;;;;17.62;64.05;95851.91;5011737;28;20234;-78
2022/07/03 00:14:32;;;;;;;3.42;1.23;;;;;;;17.59;64.35;95851.47;5012020;28;20184;-78
2022/07/03 00:16:57;;;;;;;1.25;1.10;;;;;;;17.55;64.51;95856.25;5012116;28;20187;-78
2022/07/03 00:19:22;;;;;;;1.85;1.20;;;;;;;17.60;63.90;95858.34;4996455;28;20192;-77
2022/07/03 00:21:54;;;;;;;1.17;0.90;;;;;;;17.64;63.43;95855.16;4996726;28;20192;-78
2022/07/03 00:24:24;;;;;;;1.52;1.30;;;;;;;17.70;63.61;95851.00;4995086;28;20302;-78
2022/07/03 00:26:52;;;;;;;1.52;1.42;;;;;;;17.59;64.04;95851.47;5007354;28;20252;-77
2022/07/03 00:29:22;;;;;;;1.42;1.33;;;;;;;17.56;63.77;95853.44;4998951;28;20193;-78
2022/07/03 00:31:48;;;;;;;3.05;1.45;;;;;;;17.61;63.29;95849.47;5031367;28;20706;-78
2022/07/03 00:34:16;;;;;;;1.20;1.00;;;;;;;17.62;63.36;95851.09;5013771;28;20184;-78
2022/07/03 00:36:42;;;;;;;1.20;1.08;;;;;;;17.68;63.08;95850.34;5014510;28;20190;-78
2022/07/03 00:39:07;;;;;;;1.20;1.20;;;;;;;17.62;63.48;95846.66;5031328;28;20182;-78
2022/07/03 00:41:34;;;;;;;3.15;1.10;;;;;;;17.66;63.32;95855.78;5013160;28;20679;-78
2022/07/03 00:44:00;;;;;;;1.20;1.10;;;;;;;17.61;63.39;95858.16;5013750;28;20194;-77
2022/07/03 00:46:26;;;;;;;3.35;1.17;;;;;;;17.64;63.11;95855.16;5030883;28;20226;-78
2022/07/03 00:48:53;;;;;;;1.08;1.00;;;;;;;17.70;62.61;95851.00;5030578;28;20644;-77
2022/07/03 00:51:24;;;;;;;0.88;0.88;;;;;;;17.67;62.61;95852.16;5031018;28;20199;-78
2022/07/03 00:53:51;;;;;;;1.23;1.20;;;;;;;17.67;62.53;95853.94;4997956;28;20233;-78
2022/07/03 00:56:19;;;;;;;1.42;1.08;;;;;;;17.74;62.47;95847.81;5031248;28;20175;-78
2022/07/03 00:58:45;;;;;;;2.80;0.90;;;;;;;17.66;62.28;95836.56;5030307;28;20643;-77
2022/07/03 01:01:10;;;;;;;2.17;1.00;;;;;;;17.76;61.84;95852.91;4997583;28;20218;-78
2022/07/03 01:03:39;;;;;;;1.00;1.00;;;;;;;17.75;62.00;95844.19;5028829;28;20207;-78
2022/07/03 01:06:10;;;;;;;0.80;0.80;;;;;;;17.73;61.94;95856.69;5014012;28;20255;-78
2022/07/03 01:08:51;;;;;;;2.15;1.40;;;;;;;17.72;61.76;95854.25;5030992;28;20181;-78
2022/07/03 01:11:19;;;;;;;2.25;1.00;;;;;;;17.79;61.87;95855.16;5030675;28;20233;-78
2022/07/03 01:13:59;;;;;;;2.13;1.00;;;;;;;17.73;62.09;95855.88;5015503;28;20179;-78
2022/07/03 01:16:30;;;;;;;3.42;1.10;;;;;;;17.71;61.98;95850.81;5016714;28;20179;-78
2022/07/03 01:19:36;;;;;;;1.25;1.13;;;;;;;17.75;61.86;95848.63;5030828;28;20203;-77
2022/07/03 01:22:14;;;;;;;1.30;1.02;;;;;;;17.70;62.06;95851.00;4999292;28;20192;-78
2022/07/03 01:25:11;;;;;;;0.98;0.98;;;;;;;17.71;62.19;95855.25;4995169;28;20187;-78
2022/07/03 01:27:58;;;;;;;1.15;1.05;;;;;;;17.71;62.24;95856.06;4995106;28;20183;-77
2022/07/03 01:30:25;;;;;;;0.90;0.90;;;;;;;17.78;61.55;95853.53;4994955;28;20204;-78
2022/07/03 01:33:05;;;;;;;1.63;0.90;;;;;;;17.76;62.03;95853.72;4994564;28;20200;-78
2022/07/03 01:35:38;;;;;;;1.30;1.00;;;;;;;17.71;62.21;95856.06;4977290;28;20180;-78
2022/07/03 01:38:07;;;;;;;1.23;1.13;;;;;;;17.77;61.92;95850.09;4994449;28;20180;-78
2022/07/03 01:40:34;;;;;;;1.02;1.02;;;;;;;17.74;62.26;95847.81;4994676;28;20207;-78
2022/07/03 01:43:03;;;;;;;1.45;1.05;;;;;;;17.72;62.40;95847.19;4978396;28;20192;-78
2022/07/03 01:45:31;;;;;;;2.92;1.20;;;;;;;17.74;62.24;95844.38;5010463;28;20171;-77
2022/07/03 01:47:57;;;;;;;1.17;1.08;;;;;;;17.73;62.39;95845.38;5011241;28;20671;-78
2022/07/03 01:50:24;;;;;;;1.30;1.20;;;;;;;17.61;63.34;95845.03;5010967;28;20215;-77
2022/07/03 01:52:49;;;;;;;1.48;0.90;;;;;;;17.64;63.00;95834.13;5010240;28;20703;-78
2022/07/03 01:55:15;;;;;;;1.02;1.02;;;;;;;17.67;62.92;95839.03;4993722;28;20239;-77
2022/07/03 01:57:46;;;;;;;2.75;1.05;;;;;;;17.70;62.67;95840.50;4994055;28;20270;-78
2022/07/03 02:00:12;;;;;;;2.35;1.08;;;;;;;17.66;62.80;95837.38;5010835;28;20203;-78
2022/07/03 02:02:43;;;;;;;1.48;1.38;;;;;;;17.69;62.95;95839.66;4978570;28;20191;-77
2022/07/03 02:05:29;;;;;;;1.20;1.02;;;;;;;17.77;62.36;95829.09;5008562;28;20518;-78
2022/07/03 02:08:06;;;;;;;1.55;1.05;;;;;;;17.75;62.29;95831.06;4993391;28;20180;-78
2022/07/03 02:10:34;;;;;;;1.33;1.20;;;;;;;17.80;62.19;95827.88;4994647;28;20195;-78
2022/07/03 02:13:02;;;;;;;1.33;1.02;;;;;;;17.87;61.97;95827.97;5010170;28;20215;-78
2022/07/03 02:15:35;;;;;;;1.55;1.20;;;;;;;17.85;62.35;95835.22;4994219;28;20172;-78
2022/07/03 02:18:07;;;;;;;1.20;1.10;;;;;;;17.86;62.22;95840.28;4993170;28;20666;-78
2022/07/03 02:20:35;;;;;;;4.65;1.27;;;;;;;17.89;62.12;95828.59;4993264;28;20746;-78
2022/07/03 02:23:02;;;;;;;1.30;1.10;;;;;;;17.88;62.49;95829.59;4995420;28;20174;-78
2022/07/03 02:25:37;;;;;;;2.63;1.05;;;;;;;17.94;62.26;95820.97;4993714;28;20186;-77
2022/07/03 02:28:21;;;;;;;1.20;1.10;;;;;;;17.90;62.34;95835.47;4977458;28;20233;-78
2022/07/03 02:30:49;;;;;;;1.33;1.23;;;;;;;17.82;62.88;95834.56;4993306;28;20196;-78
2022/07/03 02:33:18;;;;;;;0.98;0.98;;;;;;;17.79;62.64;95832.34;4994944;28;20203;-77
2022/07/03 02:35:47;;;;;;;1.30;1.20;;;;;;;17.72;63.17;95835.88;4992851;28;20196;-77
2022/07/03 02:38:22;;;;;;;1.25;1.00;;;;;;;17.74;63.13;95839.13;5009796;28;20184;-78
2022/07/03 02:40:57;;;;;;;1.00;1.00;;;;;;;17.64;63.50;95834.13;5009598;28;20241;-78
2022/07/03 02:43:47;;;;;;;1.05;1.02;;;;;;;17.60;64.09;95838.16;4994732;28;20287;-78
2022/07/03 02:49:39;;;;;;;1.52;1.08;;;;;;;17.58;64.06;95850.66;5007877;28;20206;-78
2022/07/03 02:52:38;;;;;;;1.45;1.30;;;;;;;17.53;63.72;95850.38;4992459;28;20210;-77
2022/07/03 02:55:41;;;;;;;1.58;1.10;;;;;;;17.47;64.37;95849.28;4993800;28;20682;-78
2022/07/03 02:58:33;;;;;;;2.22;1.23;;;;;;;17.33;65.03;95847.50;4991124;28;20192;-78
2022/07/03 03:01:13;;;;;;;2.15;1.10;;;;;;;17.35;64.97;95848.13;4993729;28;20235;-78
2022/07/03 03:03:44;;;;;;;1.45;1.00;;;;;;;17.31;65.08;95846.84;5008763;28;20218;-78
2022/07/03 03:06:14;;;;;;;1.05;1.00;;;;;;;17.28;65.19;95845.41;4997170;28;20179;-78
2022/07/03 03:08:50;;;;;;;1.58;1.30;;;;;;;17.25;65.24;95845.78;4996898;28;20187;-78
2022/07/03 03:11:33;;;;;;;1.17;1.08;;;;;;;17.26;65.04;95846.59;4996652;28;20258;-77
2022/07/03 03:13:59;;;;;;;1.00;0.90;;;;;;;17.23;65.31;95846.97;4994622;28;20198;-77
2022/07/03 03:16:26;;;;;;;1.83;1.05;;;;;;;17.21;65.34;95848.94;4993832;28;20266;-77
2022/07/03 03:18:51;;;;;;;2.60;1.40;;;;;;;17.12;65.91;95845.59;4994056;28;20184;-78
2022/07/03 03:21:17;;;;;;;1.10;1.10;;;;;;;17.19;65.67;95854.38;4977551;28;20306;-77
2022/07/03 03:23:52;;;;;;;1.23;1.13;;;;;;;17.13;65.77;95849.84;4993104;28;20676;-78
2022/07/03 03:26:22;;;;;;;2.92;1.45;;;;;;;17.13;65.82;95852.47;5010117;28;20176;-77
2022/07/03 03:28:48;;;;;;;3.50;0.93;;;;;;;17.15;65.76;95868.03;4994999;28;20267;-77
2022/07/03 03:31:14;;;;;;;1.13;1.02;;;;;;;17.13;65.86;95855.06;5010104;28;20250;-77
2022/07/03 03:33:40;;;;;;;1.35;1.23;;;;;;;17.13;65.95;95867.38;5009674;28;20203;-77
2022/07/03 03:36:08;;;;;;;2.22;2.03;;;;;;;17.05;66.28;95860.44;4993320;28;20188;-77
2022/07/03 03:38:33;;;;;;;2.08;1.63;;;;;;;17.04;66.37;95868.47;5009814;28;20259;-77
2022/07/03 03:40:59;;;;;;;1.73;1.17;;;;;;;17.07;66.15;95870.75;5009759;28;20627;-78
2022/07/03 03:43:24;;;;;;;1.40;1.25;;;;;;;17.13;65.78;95870.81;4993444;28;20577;-77
2022/07/03 03:45:49;;;;;;;2.38;1.10;;;;;;;17.09;66.18;95866.13;4992866;28;20540;-77
2022/07/03 03:48:15;;;;;;;3.25;1.38;;;;;;;17.00;66.32;95868.03;4977142;28;20186;-77
2022/07/03 03:50:42;;;;;;;4.20;1.40;;;;;;;16.99;66.48;95866.41;4994448;28;20198;-78
2022/07/03 03:53:08;;;;;;;1.92;1.33;;;;;;;17.13;65.71;95876.06;4977077;28;20208;-77
2022/07/03 03:55:33;;;;;;;3.00;1.40;;;;;;;17.38;65.03;95881.88;4992510;28;20274;-77
2022/07/03 03:58:01;;;;;;;1.27;1.10;;;;;;;18.73;60.17;95871.69;4976763;28;20314;-77
2022/07/03 04:00:26;;;;;;;2.35;1.08;;;;;;;20.22;54.86;95888.69;4995464;28;20192;-78
2022/07/03 04:02:51;;;;;;;1.13;1.00;;;;;;;21.45;49.81;95881.25;4979068;28;20176;-78
2022/07/03 04:05:17;;;;;;;1.08;1.00;;;;;;;22.75;46.41;95887.97;4995882;28;20424;-78
2022/07/03 04:07:42;;;;;;;2.88;1.10;;;;;;;23.40;44.51;95892.91;4996590;28;20192;-78
2022/07/03 04:10:07;;;;;;;1.58;1.08;;;;;;;23.70;43.04;95893.06;4996380;28;20250;-78
2022/07/03 04:12:33;;;;;;;0.93;0.85;;;;;;;24.66;41.09;95891.44;4997411;28;20203;-78
2022/07/03 04:14:58;;;;;;;1.15;0.90;;;;;;;25.26;39.44;95897.41;4996284;28;20172;-78
2022/07/03 04:17:24;;;;;;;0.75;0.68;;;;;;;25.01;39.86;95900.28;5013166;28;20234;-78
2022/07/03 04:19:49;;;;;;;0.90;0.90;;;;;;;24.78;40.17;95905.53;4997031;28;20176;-78
2022/07/03 04:22:14;;;;;;;0.77;0.77;;;;;;;25.92;38.20;95898.09;4996453;28;20168;-79
2022/07/03 04:24:40;;;;;;;1.88;0.80;;;;;;;26.62;37.37;95900.50;4997066;28;20578;-78
2022/07/03 04:27:05;;;;;;;2.50;1.33;;;;;;;26.05;37.33;95905.78;4996394;28;20231;-78
2022/07/03 04:29:30;;;;;;;1.00;0.90;;;;;;;26.39;36.55;95900.59;4998160;28;20226;-78
2022/07/03 04:31:55;;;;;;;0.80;0.80;;;;;;;26.36;37.00;95906.38;4997412;28;20204;-78
2022/07/03 04:34:21;;;;;;;0.90;0.80;;;;;;;26.81;35.45;95904.56;4997725;28;20207;-78
2022/07/03 04:36:46;;;;;;;1.92;0.98;;;;;;;28.79;32.60;95913.63;4998052;28;20195;-78
2022/07/03 04:39:11;;;;;;;1.05;0.95;;;;;;;29.11;30.96;95910.19;5000294;28;20180;-78
2022/07/03 04:41:37;;;;;;;2.17;0.90;;;;;;;28.60;32.13;95909.69;5016269;28;20192;-79
2022/07/03 04:44:02;;;;;;;0.85;0.85;;;;;;;28.82;31.67;95913.13;5000497;28;20176;-78
2022/07/03 04:46:27;;;;;;;1.27;0.80;;;;;;;29.36;31.02;95917.59;5018849;28;20187;-79
2022/07/03 04:48:53;;;;;;;1.00;0.70;;;;;;;29.04;31.41;95916.56;5018230;28;20180;-79
2022/07/03 04:51:18;;;;;;;2.55;0.80;;;;;;;30.11;29.37;95921.81;5008202;28;20191;-78
2022/07/03 04:53:43;;;;;;;1.85;0.80;;;;;;;29.90;30.23;95912.88;4979436;28;20223;-77
2022/07/03 04:56:08;;;;;;;1.15;0.82;;;;;;;30.18;29.66;95920.50;5013850;28;20422;-78
2022/07/03 04:58:34;;;;;;;0.80;0.80;;;;;;;30.48;28.91;95912.81;5014176;28;20188;-78
2022/07/03 05:00:59;;;;;;;1.88;0.75;;;;;;;29.56;30.09;95918.56;4998509;28;20254;-79
2022/07/03 05:03:25;;;;;;;0.93;0.93;;;;;;;31.54;27.55;95914.81;5015738;28;20261;-79
2022/07/03 05:05:52;;;;;;;1.15;0.80;;;;;;;31.12;28.50;95917.78;5016149;28;20652;-79
2022/07/03 05:08:19;;;;;;;2.45;0.90;;;;;;;31.62;27.76;95918.81;5016153;28;20251;-78
2022/07/03 05:10:44;;;;;;;0.68;0.68;;;;;;;32.28;26.09;95914.06;5014884;28;20202;-79
2022/07/03 05:13:09;;;;;;;2.08;0.73;;;;;;;33.05;25.54;95916.34;5014060;28;20210;-79
2022/07/03 05:15:35;;;;;;;0.82;0.80;;;;;;;31.84;26.94;95914.78;4996954;28;20648;-78
2022/07/03 05:18:00;;;;;;;1.20;0.88;;;;;;;33.14;25.71;95920.03;5014314;28;20233;-77
2022/07/03 05:20:28;;;;;;;2.40;0.75;;;;;;;34.02;23.39;95918.97;5011952;28;20199;-76
2022/07/03 05:22:57;;;;;;;0.98;0.90;;;;;;;32.89;26.03;95916.47;5010966;28;20195;-77
2022/07/03 05:25:24;;;;;;;0.82;0.70;;;;;;;33.79;23.80;95920.53;5010221;28;20201;-77
2022/07/03 05:27:52;;;;;;;1.15;0.90;;;;;;;34.28;23.83;95919.44;4995128;28;20585;-77
2022/07/03 05:30:19;;;;;;;2.15;0.95;;;;;;;32.20;25.80;95925.38;4996035;28;20252;-77
2022/07/03 05:32:44;;;;;;;2.20;1.02;;;;;;;31.89;26.07;95924.69;4995675;28;20555;-77
2022/07/03 05:35:09;;;;;;;2.70;0.80;;;;;;;31.48;26.87;95921.28;5011980;28;20182;-77
2022/07/03 05:37:34;;;;;;;0.82;0.60;;;;;;;32.86;24.71;95926.97;5012277;28;20197;-77
2022/07/03 05:40:00;;;;;;;1.17;0.73;;;;;;;32.65;25.12;95923.56;5012921;28;20394;-78
2022/07/03 05:42:25;;;;;;;0.85;0.77;;;;;;;33.20;24.49;95922.41;5012820;28;20187;-77
2022/07/03 05:44:51;;;;;;;1.17;1.08;;;;;;;32.18;26.18;95914.13;5012674;28;20599;-77
2022/07/03 05:47:16;;;;;;;2.28;0.80;;;;;;;32.53;25.15;95915.06;5012836;28;20556;-77
2022/07/03 05:49:41;;;;;;;0.60;0.60;;;;;;;32.34;24.87;95913.00;5013051;28;20659;-77
2022/07/03 05:52:07;;;;;;;1.17;0.80;;;;;;;32.20;24.70;95916.53;5013110;28;20214;-77
2022/07/03 05:54:32;;;;;;;1.02;0.80;;;;;;;31.75;24.95;95910.22;4995558;28;20188;-77
2022/07/03 05:56:58;;;;;;;2.17;0.77;;;;;;;31.92;25.38;95917.97;5011964;28;20182;-77
2022/07/03 05:59:23;;;;;;;0.80;0.80;;;;;;;32.53;24.81;95921.22;5013849;28;20555;-77
2022/07/03 06:01:48;;;;;;;3.05;0.70;;;;;;;32.60;24.24;95915.53;5013946;28;20250;-77
2022/07/03 06:04:14;;;;;;;1.42;0.85;;;;;;;32.24;23.50;95909.50;5013495;28;20183;-77
2022/07/03 06:06:39;;;;;;;1.85;0.75;;;;;;;31.65;24.48;95912.94;5013838;28;20209;-77
2022/07/03 06:09:04;;;;;;;2.22;0.60;;;;;;;31.83;24.23;95918.53;5013819;28;20247;-77
2022/07/03 06:11:29;;;;;;;0.70;0.70;;;;;;;32.11;24.41;95917.09;5013349;28;20222;-77
2022/07/03 06:13:55;;;;;;;2.38;0.90;;;;;;;31.95;24.41;95920.09;5012645;28;20268;-78
2022/07/03 06:16:20;;;;;;;0.70;0.70;;;;;;;32.65;23.85;95916.31;4995444;28;20202;-77
2022/07/03 06:18:46;;;;;;;0.77;0.70;;;;;;;32.31;22.97;95921.59;5011946;28;20171;-77
2022/07/03 06:21:11;;;;;;;0.55;0.52;;;;;;;32.69;22.92;95927.34;5010325;28;20198;-77
2022/07/03 06:23:36;;;;;;;0.70;0.63;;;;;;;31.58;23.98;95919.38;5011422;28;20174;-77
2022/07/03 06:26:01;;;;;;;0.85;0.70;;;;;;;32.08;23.96;95924.91;5011486;28;20175;-77
2022/07/03 06:28:27;;;;;;;1.52;0.80;;;;;;;32.38;23.97;95934.75;5011808;28;20598;-77
2022/07/03 06:30:52;;;;;;;0.82;0.60;;;;;;;33.54;22.39;95935.03;5011851;28;20293;-77
2022/07/03 06:33:17;;;;;;;4.28;0.80;;;;;;;32.62;22.58;95934.91;5012286;28;20198;-78
2022/07/03 06:35:43;;;;;;;1.50;0.60;;;;;;;32.71;22.77;95938.59;5011457;28;20213;-78
2022/07/03 06:38:08;;;;;;;1.00;0.60;;;;;;;33.23;22.65;95938.00;4996230;28;20263;-78
2022/07/03 06:40:34;;;;;;;0.90;0.70;;;;;;;32.82;21.83;95934.75;4997218;28;20203;-79
2022/07/03 06:43:01;;;;;;;1.42;0.60;;;;;;;32.67;22.44;95932.97;5013707;28;20175;-79
2022/07/03 06:45:27;;;;;;;0.70;0.60;;;;;;;33.08;22.35;95937.31;5015155;28;20179;-78
2022/07/03 06:47:52;;;;;;;0.88;0.60;;;;;;;33.63;21.23;95929.84;4998378;28;20283;-78
2022/07/03 06:50:17;;;;;;;1.80;0.70;;;;;;;33.90;21.07;95934.72;5017453;28;20242;-77
2022/07/03 06:52:42;;;;;;;1.27;0.50;;;;;;;32.40;22.19;95936.06;4998052;28;20241;-77
2022/07/03 06:55:08;;;;;;;1.73;0.50;;;;;;;32.81;22.24;95933.16;5013677;28;20511;-77
2022/07/03 06:57:33;;;;;;;0.90;0.68;;;;;;;32.79;22.77;95935.34;5013009;28;20241;-77
2022/07/03 06:59:59;;;;;;;1.17;0.50;;;;;;;33.17;22.08;95941.00;5013036;28;20600;-76
2022/07/03 07:02:24;;;;;;;1.77;0.60;;;;;;;33.49;21.87;95935.13;5014945;28;20175;-77
2022/07/03 07:04:49;;;;;;;2.15;0.82;;;;;;;33.65;21.32;95941.13;5013494;28;20179;-77
2022/07/03 07:07:15;;;;;;;1.73;0.60;;;;;;;33.35;21.63;95945.69;4997215;28;20183;-77
2022/07/03 07:09:40;;;;;;;1.42;0.63;;;;;;;32.86;22.50;95946.59;4996917;28;20613;-77
2022/07/03 07:12:06;;;;;;;1.50;0.65;;;;;;;33.94;21.67;95941.16;4996642;28;20203;-76
2022/07/03 07:14:34;;;;;;;1.42;0.75;;;;;;;33.32;22.30;95948.97;5014079;28;20179;-77
2022/07/03 07:16:59;;;;;;;1.20;0.68;;;;;;;33.34;22.52;95952.16;5011802;28;20218;-76
2022/07/03 07:19:25;;;;;;;1.15;0.73;;;;;;;34.40;20.88;95946.81;5014641;28;20210;-77
2022/07/03 07:21:50;;;;;;;4.45;0.70;;;;;;;34.28;20.83;95947.22;5013195;28;20215;-76
2022/07/03 07:24:15;;;;;;;0.50;0.50;;;;;;;33.90;20.81;95948.19;5013946;28;20175;-77
2022/07/03 07:26:41;;;;;;;2.15;0.60;;;;;;;33.94;21.61;95949.22;5011861;28;20185;-77
2022/07/03 07:29:06;;;;;;;0.98;0.80;;;;;;;33.46;22.17;95943.75;5013021;28;20175;-77
2022/07/03 07:31:31;;;;;;;2.80;0.68;;;;;;;32.93;22.10;95947.06;5013571;28;20261;-76
2022/07/03 07:33:57;;;;;;;1.13;0.63;;;;;;;33.12;21.99;95952.59;5015700;28;20171;-82
2022/07/03 07:36:22;;;;;;;0.77;0.65;;;;;;;32.67;22.57;95943.72;4998634;28;20252;-81
2022/07/03 07:38:47;;;;;;;1.10;0.70;;;;;;;33.60;21.32;95951.97;5013178;28;20183;-76
2022/07/03 07:41:13;;;;;;;0.45;0.45;;;;;;;32.94;21.73;95954.06;5013806;28;20198;-77
2022/07/03 07:43:38;;;;;;;2.15;0.70;;;;;;;32.64;22.47;95951.53;5012469;28;20536;-76
2022/07/03 07:46:03;;;;;;;1.70;0.43;;;;;;;33.42;20.96;95951.59;5011613;28;20230;-77
2022/07/03 07:48:29;;;;;;;1.35;0.60;;;;;;;32.58;23.16;95947.28;5012375;28;20502;-76
2022/07/03 07:50:55;;;;;;;1.02;0.60;;;;;;;32.42;23.27;95949.22;5012741;28;20249;-76
2022/07/03 07:53:20;;;;;;;1.15;0.63;;;;;;;32.76;23.65;95941.25;5012585;28;20211;-76
2022/07/03 07:55:45;;;;;;;1.60;0.50;;;;;;;32.41;22.96;95945.72;5012052;28;20209;-76
2022/07/03 07:58:11;;;;;;;1.92;0.50;;;;;;;32.02;22.76;95944.81;5013431;28;20280;-77
2022/07/03 08:00:36;;;;;;;1.90;0.60;;;;;;;32.19;23.13;95947.97;4995382;28;20667;-76
2022/07/03 08:05:45;;;;;;;0.98;0.50;;;;;;;31.19;25.17;95943.28;5011434;28;20241;-76
2022/07/03 08:08:11;;;;;;;0.60;0.60;;;;;;;31.48;24.14;95937.38;4995489;28;20171;-76
2022/07/03 08:10:42;;;;;;;1.10;0.40;;;;;;;31.21;23.54;95934.97;5012080;28;20667;-76
2022/07/03 08:13:08;;;;;;;0.50;0.50;;;;;;;31.69;23.21;95933.56;5012144;28;20285;-76
2022/07/03 08:15:34;;;;;;;0.95;0.50;;;;;;;31.19;25.06;95937.91;5012296;28;20228;-76
2022/07/03 08:17:59;;;;;;;1.42;0.52;;;;;;;31.48;23.04;95932.81;5011836;28;20190;-78
2022/07/03 08:20:25;;;;;;;2.72;0.77;;;;;;;30.34;25.18;95928.59;5011618;28;20195;-78
2022/07/03 08:22:51;;;;;;;0.63;0.47;;;;;;;31.15;23.32;95928.75;5013063;28;20178;-78
2022/07/03 08:25:16;;;;;;;1.58;0.50;;;;;;;31.38;24.19;95927.47;5012533;28;20198;-77
2022/07/03 08:27:41;;;;;;;1.33;0.68;;;;;;;30.61;25.64;95934.56;5011761;28;20187;-77
2022/07/03 08:30:10;;;;;;;0.60;0.50;;;;;;;29.88;25.61;95925.72;5013264;28;20203;-79
2022/07/03 08:32:36;;;;;;;1.77;0.57;;;;;;;30.42;24.64;95928.91;4995505;28;20640;-77
2022/07/03 08:35:01;;;;;;;0.95;0.70;;;;;;;30.37;24.49;95925.41;5012853;28;20186;-77
2022/07/03 08:37:27;;;;;;;1.55;0.70;;;;;;;29.61;27.25;95920.47;5012958;28;20237;-77
2022/07/03 08:39:52;;;;;;;0.95;0.77;;;;;;;29.37;26.98;95919.22;4995377;28;20183;-77
2022/07/03 08:42:18;;;;;;;1.10;0.63;;;;;;;29.09;26.89;95921.16;5012185;28;20356;-77
2022/07/03 08:44:43;;;;;;;0.77;0.50;;;;;;;28.95;27.82;95925.28;5011808;28;20236;-78
2022/07/03 08:47:11;;;;;;;2.15;0.63;;;;;;;29.37;27.92;95914.66;4996138;28;20183;-77
2022/07/03 08:49:37;;;;;;;1.25;0.70;;;;;;;29.02;27.59;95915.19;4996203;28;20176;-79
2022/07/03 08:52:02;;;;;;;0.88;0.60;;;;;;;28.60;27.82;95915.03;5012924;28;20207;-79
2022/07/03 08:54:28;;;;;;;2.15;0.60;;;;;;;29.10;27.94;95914.75;5012645;28;20274;-78
2022/07/03 08:56:53;;;;;;;1.63;0.68;;;;;;;29.15;27.96;95925.47;5012269;28;20226;-78
2022/07/03 08:59:20;;;;;;;0.90;0.50;;;;;;;28.64;27.49;95925.00;5012273;28;20175;-78
2022/07/03 09:01:46;;;;;;;1.00;0.70;;;;;;;28.51;29.48;95920.03;5011790;28;20204;-79
2022/07/03 09:04:15;;;;;;;0.60;0.60;;;;;;;28.75;28.89;95926.69;5013222;28;20179;-78
2022/07/03 09:06:41;;;;;;;1.17;0.57;;;;;;;29.02;28.85;95923.22;5013053;28;20175;-77
2022/07/03 09:09:08;;;;;;;0.80;0.80;;;;;;;28.44;28.48;95920.22;5012609;28;20182;-78
2022/07/03 09:11:34;;;;;;;1.77;0.70;;;;;;;28.94;28.33;95923.69;5013229;28;20198;-77
2022/07/03 09:13:59;;;;;;;0.77;0.70;;;;;;;28.94;28.97;95927.16;5011969;28;20215;-78
2022/07/03 09:16:25;;;;;;;1.63;0.70;;;;;;;28.48;28.93;95924.03;5012522;28;20207;-78
2022/07/03 09:18:50;;;;;;;0.95;0.50;;;;;;;28.54;30.21;95924.09;5012286;28;20179;-77
2022/07/03 09:21:16;;;;;;;2.05;0.82;;;;;;;28.27;30.00;95916.00;5012266;28;20273;-78
2022/07/03 09:23:43;;;;;;;1.15;0.70;;;;;;;28.20;29.34;95918.88;5011729;28;20182;-77
2022/07/03 09:26:14;;;;;;;1.30;0.60;;;;;;;28.29;29.93;95922.75;5013434;28;20190;-77
2022/07/03 09:28:51;;;;;;;0.65;0.65;;;;;;;27.57;30.62;95925.50;5011928;28;20171;-77
2022/07/03 09:31:17;;;;;;;1.63;0.60;;;;;;;27.55;30.63;95927.59;4995127;28;20206;-77
2022/07/03 09:34:02;;;;;;;1.40;0.50;;;;;;;27.87;30.50;95922.47;4994624;28;20203;-77
2022/07/03 09:36:59;;;;;;;2.08;0.50;;;;;;;27.85;29.94;95922.72;5011266;28;20310;-77
2022/07/03 09:39:36;;;;;;;1.08;0.70;;;;;;;27.94;29.47;95925.75;4990450;28;20415;-77
2022/07/03 09:42:06;;;;;;;3.35;0.77;;;;;;;27.90;30.19;95921.97;4974798;28;20199;-77
2022/07/03 09:44:33;;;;;;;2.25;0.70;;;;;;;27.89;30.32;95923.03;4957767;28;20263;-79
2022/07/03 09:47:13;;;;;;;0.70;0.65;;;;;;;27.60;30.61;95922.34;4990956;28;20295;-78
2022/07/03 09:49:48;;;;;;;1.73;0.60;;;;;;;28.06;31.27;95920.28;4990844;28;20235;-78
2022/07/03 09:52:33;;;;;;;1.70;0.80;;;;;;;28.11;31.17;95918.50;4990344;28;20207;-77
2022/07/03 09:54:59;;;;;;;2.45;0.70;;;;;;;28.19;30.15;95919.94;4974892;28;20207;-77
2022/07/03 09:57:27;;;;;;;2.17;0.60;;;;;;;28.18;29.64;95916.47;4977175;28;20626;-77
2022/07/03 10:00:15;;;;;;;2.67;0.80;;;;;;;28.48;31.34;95918.69;4993264;28;20186;-78
2022/07/03 10:03:00;;;;;;;1.27;0.75;;;;;;;28.23;30.54;95916.50;4994278;28;20208;-80
2022/07/03 10:05:28;;;;;;;0.85;0.70;;;;;;;27.90;30.38;95906.75;4990398;28;20208;-78
2022/07/03 10:08:02;;;;;;;1.45;0.55;;;;;;;28.43;30.85;95920.47;4974856;28;20241;-78
2022/07/03 10:10:35;;;;;;;1.38;0.60;;;;;;;28.78;30.63;95920.03;4959277;28;20200;-78
2022/07/03 10:13:01;;;;;;;3.33;0.80;;;;;;;28.24;31.23;95917.31;4992006;28;20735;-79
2022/07/03 10:15:28;;;;;;;1.85;0.70;;;;;;;28.69;31.74;95914.34;4998257;28;20577;-80
2022/07/03 10:17:56;;;;;;;1.90;0.60;;;;;;;28.58;30.26;95911.81;5011382;28;20193;-77
2022/07/03 10:20:35;;;;;;;2.58;0.80;;;;;;;28.38;31.35;95902.56;5011854;28;20273;-79
2022/07/03 10:23:02;;;;;;;4.15;0.90;;;;;;;28.18;30.47;95911.13;5012564;28;20167;-81
2022/07/03 10:25:31;;;;;;;2.67;0.90;;;;;;;28.18;30.79;95908.44;5010943;28;20183;-78
2022/07/03 10:27:57;;;;;;;1.98;0.95;;;;;;;28.25;31.36;95902.09;5011291;28;20179;-79
2022/07/03 10:30:23;;;;;;;1.40;0.80;;;;;;;28.28;32.33;95906.94;5012345;28;20252;-79
2022/07/03 10:32:52;;;;;;;0.60;0.60;;;;;;;28.52;31.79;95910.16;5011616;28;20203;-78
2022/07/03 10:35:20;;;;;;;1.20;0.80;;;;;;;28.25;30.85;95910.09;5012222;28;20182;-79
2022/07/03 10:38:00;;;;;;;2.13;0.80;;;;;;;28.57;31.17;95908.34;5011294;28;20206;-78
2022/07/03 10:46:32;;;;;;;1.80;0.80;;;;;;;28.28;31.29;95909.63;5011847;28;20262;-78
2022/07/03 10:48:59;;;;;;;0.80;0.77;;;;;;;28.47;32.41;95906.38;5019915;28;20206;-78
2022/07/03 10:51:25;;;;;;;0.60;0.60;;;;;;;28.32;31.89;95902.75;5033100;28;20214;-78
2022/07/03 10:54:14;;;;;;;1.50;0.82;;;;;;;28.76;29.93;95904.25;5036096;28;20401;-77
2022/07/03 10:56:58;;;;;;;2.05;0.90;;;;;;;28.62;31.32;95897.69;5052509;28;20164;-78
2022/07/03 10:59:46;;;;;;;0.65;0.65;;;;;;;28.84;31.88;95902.19;5036532;28;20255;-77
2022/07/03 11:02:40;;;;;;;2.15;0.70;;;;;;;28.69;31.47;95900.97;5022741;28;20198;-78
2022/07/03 11:05:05;;;;;;;1.88;0.90;;;;;;;28.66;30.23;95893.47;5018734;28;20195;-77
2022/07/03 11:07:32;;;;;;;1.88;0.80;;;;;;;29.11;30.28;95894.97;5013648;28;20612;-78
2022/07/03 11:10:12;;;;;;;3.72;0.82;;;;;;;28.83;31.52;95897.91;5012436;28;20698;-78
2022/07/03 11:12:58;;;;;;;2.30;0.93;;;;;;;28.61;30.95;95903.28;5016327;28;20202;-79
2022/07/03 11:15:27;;;;;;;1.55;0.77;;;;;;;28.35;30.62;95887.00;5011352;28;20183;-77
2022/07/03 11:18:08;;;;;;;2.65;0.60;;;;;;;28.03;31.86;95899.44;5011838;28;20232;-77
2022/07/03 11:20:39;;;;;;;1.38;1.08;;;;;;;28.37;32.61;95890.25;5012010;28;20210;-77
2022/07/03 11:23:26;;;;;;;1.92;1.00;;;;;;;28.53;31.56;95890.41;5010553;28;20186;-77
2022/07/03 11:25:54;;;;;;;3.92;0.70;;;;;;;28.37;31.53;95887.59;5011698;28;20203;-77
2022/07/03 11:28:34;;;;;;;0.70;0.70;;;;;;;28.58;31.13;95885.91;5014736;28;20183;-77
2022/07/03 11:31:19;;;;;;;3.60;0.75;;;;;;;28.73;31.45;95887.94;5014524;28;20235;-77
2022/07/03 11:33:50;;;;;;;1.27;0.60;;;;;;;28.88;31.28;95877.34;4997009;28;20211;-78
2022/07/03 11:36:15;;;;;;;2.80;0.80;;;;;;;29.01;31.00;95878.84;5014936;28;20183;-81
2022/07/03 11:38:42;;;;;;;4.43;0.90;;;;;;;28.64;31.00;95886.78;5016124;28;20206;-81
2022/07/03 11:41:09;;;;;;;2.25;0.63;;;;;;;28.53;31.30;95875.16;5016650;28;20229;-81
2022/07/03 11:43:34;;;;;;;0.95;0.70;;;;;;;28.67;31.55;95876.38;4999632;28;20183;-78
2022/07/03 11:46:00;;;;;;;2.05;0.77;;;;;;;29.12;31.10;95871.69;5014696;28;20190;-78
2022/07/03 11:48:26;;;;;;;2.47;0.90;;;;;;;28.65;31.42;95867.81;4997925;28;20202;-78
2022/07/03 11:51:00;;;;;;;2.03;0.70;;;;;;;29.05;32.25;95862.03;5013987;28;20213;-78
2022/07/03 11:53:28;;;;;;;3.90;0.85;;;;;;;29.07;31.20;95867.13;5013709;28;20206;-78
2022/07/03 11:55:53;;;;;;;2.88;0.90;;;;;;;29.45;31.35;95868.72;5012750;28;20171;-77